Hidden Valley, Valles Caldera, New Mexico Weather observations

Data are for 10 minute period ending at time listed.
 Day   Time   Solar   Ave.   Ave.  Ave.  Vector  Max.   Baro.   Total    
  of    of     Rad.   Air    Rel.  Wind   Wind   Wind  Press.  Precip.   
Year   Day            Temp.  Hum.  Speed  Dir.   Gust                    
2014   (MST)  Kw/m2    F      %     mph   deg.    mph    mb.     in.     
-------------------------------------------------------------------------
 213    1:30   2.59   49.8    97    1.3   187     2.2   753.3    0.00 
 213    1:40   2.51   50.0    97    0.9   217     1.3   753.3    0.00 
 213    1:50   2.73   50.2    96    1.2   216     2.0   753.1    0.00 
 213    2:00   2.62   49.9    96    1.5   220     2.1   753.0    0.00 
 213    2:10   2.91   49.5    94    0.5   193     1.4   753.0    0.00 
 213    2:20   2.81   48.9    95    0.3   144     0.8   752.9    0.00 
 213    2:30   1.72   48.1    96    0.2   197     0.9   752.9    0.00 
 213    2:40   1.52   47.3    96    0.4   186     1.3   752.9    0.00 
 213    2:50   2.04   47.1    97    0.5   158     1.0   752.9    0.00 
 213    3:00   2.39   46.8    98    0.4   187     0.8   752.9    0.00 
 213    3:10   1.96   46.4    98    0.2   222     0.6   752.8    0.00 
 213    3:20   2.43   44.9    97    0.1   332     0.8   752.7    0.00 
 213    3:30   3.07   42.4    96    0.7    29     1.4   752.7    0.00 
 213    3:40   2.07   42.0    98    0.2   128     0.8   752.8    0.00 
 213    3:50   0.78   42.7    98    0.2   343     0.6   752.8    0.00 
 213    4:00   0.90   41.6    98    0.0   334     0.3   752.8    0.00 
 213    4:10   1.90   42.1    98    0.0     0     0.0   752.9    0.00 
 213    4:20   1.97   42.1    98    0.2   146     0.8   752.9    0.00 
 213    4:30   2.02   43.0    99    0.6   164     1.2   752.9    0.00 
 213    4:40   1.84   43.4    99    0.9   340     1.7   753.0    0.00 
 213    4:50   1.75   43.0    99    0.7   186     1.3   753.0    0.00 
 213    5:00   1.86   43.1    99    0.6    96     0.8   753.1    0.00 
 213    5:10   1.95   42.9    99    0.3   272     0.7   753.1    0.00 
 213    5:20   1.86   43.2    99    0.4   214     0.9   753.1    0.00 
 213    5:30   1.77   42.7    99    0.3   114     1.7   753.4    0.00 
 213    5:40   1.42   43.3    99    0.2   360     0.8   753.4    0.00 
 213    5:50   100.00  99999.0   99999  99999.0   99999   99999.0   99999.0   99999.00 
 213    6:00   100.00  99999.0   99999  99999.0   99999   99999.0   99999.0   99999.00 
 213    6:10   100.00  99999.0   99999  99999.0   99999   99999.0   99999.0   99999.00 
 213    6:20   100.00  99999.0   99999  99999.0   99999   99999.0   99999.0   99999.00 
 213    6:30   1.22   47.7    99    0.5   289     1.1   753.6    0.00 
 213    6:40   1.07   48.1    99    1.1    20     1.7   753.6    0.00 
 213    6:50   0.91   48.3    99    1.0    25     1.6   753.5    0.00 
 213    7:00   0.91   48.5    99    0.6   345     1.9   753.6    0.00 
 213    7:10   1.03   48.9    99    0.6    55     1.8   753.7    0.00 
 213    7:20   1.21   49.0    99    0.7   178     1.2   753.7    0.00 
 213    7:30   2.44   49.1    99    0.6   289     1.5   753.7    0.00 
 213    7:40   3.18   49.4    99    0.7    17     1.3   753.8    0.00 
 213    7:50   3.54   50.3    99    0.2    17     0.8   753.8    0.00 
 213    8:00   3.77   52.2    96    0.5   112     1.8   753.7    0.00 
 213    8:10   3.77   53.7    90    0.3   346     0.7   753.6    0.00 
 213    8:20   3.84   55.6    86    0.3   168     0.9   753.5    0.00 
 213    8:30   3.88   57.3    82    0.5    74     1.5   753.5    0.00 
 213    8:40   3.35   59.3    78    0.4   140     1.7   753.4    0.00 
 213    8:50   1.11   59.5    77    0.9    90     1.8   753.4    0.00 
 213    9:00   1.09   61.0    76    0.7   166     2.0   753.3    0.00 
 213    9:10   0.99   62.3    72    0.7   144     2.0   753.3    0.00 
 213    9:20   0.67   62.4    70    2.3   176     4.1   753.2    0.00 
 213    9:30   100.00  99999.0   99999  99999.0   99999   99999.0   99999.0   99999.00 
 213    9:40   100.00  99999.0   99999  99999.0   99999   99999.0   99999.0   99999.00 
 213    9:50   100.00  99999.0   99999  99999.0   99999   99999.0   99999.0   99999.00 
 213   10:00   100.00  99999.0   99999  99999.0   99999   99999.0   99999.0   99999.00 
 213   10:10   100.00  99999.0   99999  99999.0   99999   99999.0   99999.0   99999.00 
 213   10:20   100.00  99999.0   99999  99999.0   99999   99999.0   99999.0   99999.00 
 213   10:30   0.53   62.7    73    2.7   154     4.8   753.2    0.00 
 213   10:40   0.48   62.6    72    2.1   144     4.5   753.2    0.00 
 213   10:50   0.32   62.3    71    2.3   193     3.8   753.2    0.00 
 213   11:00   0.22   61.7    73    1.9   172     4.2   753.1    0.00 
 213   11:10   0.16   60.9    74    2.5   193     4.5   753.1    0.00 
 213   11:20   0.20   60.6    72    2.3   195     3.8   753.1    0.00 
 213   11:30   0.65   61.6    75    2.6   172     4.3   753.2    0.00 
 213   11:40   1.22   63.8    73    3.6   144     6.0   753.1    0.00 
 213   11:50   1.15   63.2    74    5.1   141     7.5   753.0    0.00 
 213   12:00   0.46   61.8    73    4.5   136     7.2   753.1    0.00 
 213   12:10   0.05   59.4    75    2.5   115     4.9   753.4    0.00 
 213   12:20   0.04   56.4    74    4.5    29     8.2   753.6    0.02 
 213   12:30   0.04   52.6    82    2.5   332     5.3   753.8    0.06 
 213   12:40   0.54   50.8    89    1.4   253     2.3   753.9    0.09 
 213   12:50   1.60   49.5    94    2.3   225     5.6   753.9    0.03 
 213   13:00   2.70   49.7    94    2.4   208     4.6   753.9    0.02 
 213   13:10   3.17   49.5    95    2.2   208     3.4   753.7    0.02 
 213   13:20   3.33   49.5    96    1.9   205     2.8   753.6    0.01 
 213   13:30   3.50   49.7    96    1.2   187     1.7   753.5    0.02 
 213   13:40   3.60   49.8    96    1.3   214     2.5   753.4    0.03 
 213   13:50   3.80   50.2    96    0.4   159     0.9   753.2    0.00 
 213   14:00   3.83   51.0    95    0.5    83     1.6   753.1    0.00 
 213   14:10   3.93   51.9    92    0.7   103     2.0   753.0    0.01 
 213   14:20   4.10   52.6    88    0.5   111     0.9   752.9    0.01 
 213   14:30   4.17   53.8    88    0.5   208     1.4   752.7    0.00 
 213   14:40   4.22   54.8    86    0.4   293     1.3   752.7    0.00 
 213   14:50   4.16   55.9    82    0.8   354     1.8   752.5    0.00 
 213   15:00   4.24   56.9    79    1.1    13     2.7   752.5    0.00 
 213   15:10   2.81   57.6    76    1.1   334     2.0   752.4    0.00 
 213   15:20   2.42   58.2    75    1.3   350     2.5   752.4    0.00 
 213   15:30   3.15   60.3    73    0.7    37     2.0   752.3    0.00 
 213   15:40   2.65   60.9    74    1.6   333     3.0   752.2    0.00 
 213   15:50   1.95   61.0    71    1.0   304     2.5   752.1    0.00 
 213   16:00   2.12   61.6    70    0.7   286     1.5   752.1    0.00 
 213   16:10   2.26   63.6    66    0.9   248     2.0   752.0    0.00 
 213   16:20   1.44   62.7    64    1.9   186     4.6   752.0    0.00 
 213   16:30   1.48   62.0    66    2.7   172     7.7   752.0    0.00 
 213   16:40   1.24   59.8    77    3.2   168     5.7   752.0    0.00 
 213   16:50   1.04   57.7    83    2.8   187     4.9   752.1    0.00 
 213   17:00   1.00   57.1    84    2.8   200     4.9   752.1    0.00 
 213   17:10   1.02   57.1    84    2.1   218     4.1   752.1    0.00 
 213   17:20   1.05   57.2    85    2.3   210     4.6   752.0    0.00 
 213   17:30   0.95   56.9    85    2.5   236     3.8   752.0    0.00 
 213   17:40   0.86   56.9    85    2.4   204     3.9   752.0    0.00 
 213   17:50   0.80   56.8    85    1.5   199     2.5   752.1    0.00 
 213   18:00   0.81   56.8    87    1.1   258     1.8   752.4    0.00 
 213   18:10   0.80   56.1    89    2.4   350     3.9   752.6    0.00 
 213   18:20   1.24   55.6    87    2.9   346     5.3   752.8    0.00 
 213   18:30   1.80   53.5    85    3.8   314     5.5   752.9    0.06 
 213   18:40   2.01   52.1    89    2.2   307     3.8   752.9    0.03 
 213   18:50   2.48   51.9    91    1.0   147     2.2   753.1    0.01 
 213   19:00   1.52   51.5    94    0.3   209     1.1   753.2    0.02 
 213   19:10   0.62   51.3    94    0.0     0     0.0   753.3    0.02 
 213   19:20   0.14   51.3    95    0.8   354     1.3   753.4    0.01 
 213   19:30   0.05   51.1    96    0.5    51     1.2   753.6    0.01 
 213   19:40   0.02   51.0    96    0.7    86     1.1   753.6    0.00 
 213   19:50   0.01   51.0    97    0.5    68     1.2   753.5    0.01 
 213   20:00   0.22   51.2    97    0.8   344     1.5   753.5    0.00 
 213   20:10   0.88   51.3    97    1.0    13     1.7   753.5    0.00 
 213   20:20   0.90   51.5    97    1.1   331     1.5   753.6    0.01 
 213   20:30   0.71   51.6    97    1.3   338     2.1   753.7    0.00 
 213   20:40   0.80   51.7    96    0.5   358     1.5   753.7    0.00 
 213   20:50   0.65   51.6    96    0.6   208     0.8   753.9    0.00 
 213   21:00   0.65   51.6    96    0.2   149     0.7   754.0    0.01 
 213   21:10   0.67   51.5    97    1.4   240     2.4   754.0    0.02 
 213   21:20   0.81   51.5    97    1.3   225     2.3   753.9    0.00 
 213   21:30   0.76   51.4    97    1.1   185     1.9   753.8    0.01 
 213   21:40   0.82   51.4    97    0.8   203     2.0   753.6    0.00 
 213   21:50   0.80   51.2    97    1.1   346     2.0   753.4    0.00 
 213   22:00   0.81   51.1    97    0.7   277     1.4   753.2    0.00 
 213   22:10   0.98   50.9    97    0.9   326     1.7   753.2    0.00 
 213   22:20   1.08   50.8    97    1.0     0     2.2   753.2    0.00 
 213   22:30   1.32   50.8    97    0.8    12     1.8   753.2    0.00 
 213   22:40   2.15   50.9    96    0.7   359     1.6   753.3    0.00 
 213   22:50   2.27   50.7    97    0.6   345     1.3   753.4    0.00 
 213   23:00   2.00   50.4    97    0.2     2     0.5   753.4    0.00 
 213   23:10   1.34   50.3    97    0.3   232     0.9   753.5    0.00 
 213   23:20   2.39   49.7    97    0.7   154     1.1   753.6    0.00 
 213   23:30   3.55   49.9    98    0.6   220     1.2   753.5    0.00 
 213   23:40   1.31   50.0    98    1.1   218     1.8   753.5    0.00 
 213   23:50   0.64   49.7    98    0.4   189     1.1   753.6    0.00 
 214    0:00   0.44   49.9    95    1.6   154     3.5   753.6    0.00 
 214    0:10   0.80   51.1    90    2.1   179     3.6   753.7    0.00 
 214    0:20   0.65   51.2    88    1.8   144     3.4   753.8    0.00 
 214    0:30   0.60   51.3    88    1.3    81     3.8   753.7    0.00 
 214    0:40   0.57   51.2    90    1.3    59     3.0   753.7    0.00 
 214    0:50   0.56   51.2    92    1.4    98     5.3   753.7    0.00 
 214    1:00   0.47   51.5    92    1.8   143     4.4   753.6    0.00 
 214    1:10   0.53   51.6    92    1.3   187     2.7   753.7    0.00 
 214    1:20   0.58   51.7    92    2.4   163     5.7   753.7    0.00 

Return to Hidden Valley, Valles Caldera graphs page.


Western Regional Climate Center,wrcc@dri.edu